Valdese, NC

9:04 PM EDT on July 29, 2016 (GMT -0400)
BurkeWeather.com | | Change Station

Elev 1193 ft 35.73 °N, 81.59 °W | Updated 87 days ago

Cloudy
Cloudy
76 °F
Feels Like 76 °F
N
0
Wind Variable Wind from West
Gusts mph

Today
High -- | Low -- °F
--% Chance of Precip.
Yesterday
High -- | Low -- °F
Precip. -- in
Pressure 30.04 in
Visibility 7.0 miles
Clouds Scattered Clouds 2100 ft
Scattered Clouds 3500 ft
Mostly Cloudy 8500 ft
Dew Point 70 °F
Humidity 81%
Rainfall in
Snow Depth Not available.
6:32 AM 8:32 PM
Waning Crescent, 17% visible
METAR KMRN 300035Z AUTO 00000KT 7SM SCT021 SCT035 BKN085 24/23 A3004 RMK AO2 P0008 T02350232
Pressure 30.04 in
Visibility 7.0 miles
Clouds Scattered Clouds 2100 ft
Scattered Clouds 3500 ft
Mostly Cloudy 8500 ft
Dew Point 70 °F
Humidity 81%
Rainfall in
Snow Depth Not available.
6:32 AM 8:32 PM
Waning Crescent, 17% visible
METAR KMRN 300035Z AUTO 00000KT 7SM SCT021 SCT035 BKN085 24/23 A3004 RMK AO2 P0008 T02350232

10-Day Weather Forecast

Almanac

Astronomy

Jul. 29, 2016 Rise Set
Actual Time
Civil Twilight
Nautical Twilight
Astronomical Twilight
Moon
Length of Visible Light
Length of Day
Tomorrow will be .
, % of the Moon is Illuminated

Today's Extremes

State Highs State Lows

Community

WunderPhotos

Upload Photos

1,928,463 photos uploaded!

WunderBlog® & News

Nearby

Air Quality

  Air Quality AQ Index Pollutant
Not available.

Snow Depth

Station Depth Elevation

Earthquake Activity

City Distance Mag. Time & Date
Minimum magnitude displayed is 2.5.

Coastal Water Temperatures

Place Temperature

Stations

Nearby Weather Stations

Station Location Temp. Windchill Dew Point Humidity Wind Precip. Elev Updated Type
                   

Watches & Warnings

There are currently no watches in effect.